KLBO

Floyd W Jones Lebanon Airport

Lebanon, Missouri, USA
METAR KLBO 220235Z AUTO 00000KT 10SM CLR 20/17 A3004 RMK AO2
Observed Flight Rules
May-22 @ 02:35 UTC (6 minutes ago) Visual Flight Rules
Visibility Clouds
10 miles
  • Clear skies
Temperatures Readings
Current 20°C / 68°F
Dewpoint 17°C / 63°F
Humidity 83%
Altimeter 30.04" Hg
Pressure 1017 hPa
Elevation 403
METAR KLBO 220235Z AUTO 00000KT 10SM CLR 20/17 A3004 RMK AO2
Observed Flight Rules
May-22 @ 02:35 UTC
(6 minutes ago)
VFR
Clouds
  • Clear skies
Temperature Dewpoint
20°C / 68°F 17°C / 63°F
Humidity Altimeter Pressure
83% 30.04" Hg 1017 hPa